sensor_id;sensor_type;location;lat;lon;timestamp;P1;durP1;ratioP1;P2;durP2;ratioP2
44987;SDS011;35735;52.226;21.254;2023-09-08T00:02:29;10.10;;;5.43;;
44987;SDS011;35735;52.226;21.254;2023-09-08T00:07:30;8.82;;;5.32;;
44987;SDS011;35735;52.226;21.254;2023-09-08T00:12:30;8.77;;;4.95;;
44987;SDS011;35735;52.226;21.254;2023-09-08T00:17:31;6.87;;;4.70;;
44987;SDS011;35735;52.226;21.254;2023-09-08T00:22:31;7.22;;;4.82;;
44987;SDS011;35735;52.226;21.254;2023-09-08T00:27:32;9.07;;;4.62;;
44987;SDS011;35735;52.226;21.254;2023-09-08T00:32:32;8.13;;;4.78;;
44987;SDS011;35735;52.226;21.254;2023-09-08T00:37:33;5.78;;;4.32;;
44987;SDS011;35735;52.226;21.254;2023-09-08T00:42:34;7.78;;;4.80;;
44987;SDS011;35735;52.226;21.254;2023-09-08T00:47:34;5.28;;;4.28;;
44987;SDS011;35735;52.226;21.254;2023-09-08T00:52:35;6.45;;;4.70;;
44987;SDS011;35735;52.226;21.254;2023-09-08T00:57:35;5.95;;;5.00;;
44987;SDS011;35735;52.226;21.254;2023-09-08T01:02:36;5.85;;;4.65;;
44987;SDS011;35735;52.226;21.254;2023-09-08T01:07:36;5.68;;;4.62;;
44987;SDS011;35735;52.226;21.254;2023-09-08T01:12:37;5.30;;;4.70;;
44987;SDS011;35735;52.226;21.254;2023-09-08T01:17:38;5.75;;;4.55;;
44987;SDS011;35735;52.226;21.254;2023-09-08T01:22:43;6.43;;;4.90;;
44987;SDS011;35735;52.226;21.254;2023-09-08T01:28:10;6.97;;;4.72;;
44987;SDS011;35735;52.226;21.254;2023-09-08T01:33:12;9.23;;;4.78;;
44987;SDS011;35735;52.226;21.254;2023-09-08T01:38:12;5.65;;;5.10;;
44987;SDS011;35735;52.226;21.254;2023-09-08T01:43:13;6.10;;;4.50;;
44987;SDS011;35735;52.226;21.254;2023-09-08T01:48:14;8.82;;;4.93;;
44987;SDS011;35735;52.226;21.254;2023-09-08T01:53:14;9.35;;;5.25;;
44987;SDS011;35735;52.226;21.254;2023-09-08T01:58:15;9.50;;;4.70;;
44987;SDS011;35735;52.226;21.254;2023-09-08T02:03:15;7.25;;;4.80;;
44987;SDS011;35735;52.226;21.254;2023-09-08T02:08:16;5.62;;;4.80;;
44987;SDS011;35735;52.226;21.254;2023-09-08T02:13:16;8.52;;;4.62;;
44987;SDS011;35735;52.226;21.254;2023-09-08T02:18:17;7.12;;;4.68;;
44987;SDS011;35735;52.226;21.254;2023-09-08T02:23:17;7.43;;;5.20;;
44987;SDS011;35735;52.226;21.254;2023-09-08T02:28:18;6.12;;;4.35;;
44987;SDS011;35735;52.226;21.254;2023-09-08T02:33:18;7.32;;;5.00;;
44987;SDS011;35735;52.226;21.254;2023-09-08T02:38:19;8.30;;;4.60;;
44987;SDS011;35735;52.226;21.254;2023-09-08T02:43:19;5.45;;;4.32;;
44987;SDS011;35735;52.226;21.254;2023-09-08T02:48:20;6.62;;;4.95;;
44987;SDS011;35735;52.226;21.254;2023-09-08T02:53:20;8.25;;;4.65;;
44987;SDS011;35735;52.226;21.254;2023-09-08T02:58:23;5.15;;;4.40;;
44987;SDS011;35735;52.226;21.254;2023-09-08T03:03:24;7.90;;;4.57;;
44987;SDS011;35735;52.226;21.254;2023-09-08T03:08:24;7.80;;;4.60;;
44987;SDS011;35735;52.226;21.254;2023-09-08T03:13:25;6.97;;;5.12;;
44987;SDS011;35735;52.226;21.254;2023-09-08T03:18:25;6.82;;;4.53;;
44987;SDS011;35735;52.226;21.254;2023-09-08T03:23:26;7.55;;;4.32;;
44987;SDS011;35735;52.226;21.254;2023-09-08T03:28:26;8.10;;;5.40;;
44987;SDS011;35735;52.226;21.254;2023-09-08T03:33:27;6.45;;;4.78;;
44987;SDS011;35735;52.226;21.254;2023-09-08T03:38:27;5.95;;;5.07;;
44987;SDS011;35735;52.226;21.254;2023-09-08T03:43:28;7.00;;;5.20;;
44987;SDS011;35735;52.226;21.254;2023-09-08T03:48:29;9.02;;;5.30;;
44987;SDS011;35735;52.226;21.254;2023-09-08T03:53:29;8.15;;;4.60;;
44987;SDS011;35735;52.226;21.254;2023-09-08T03:58:31;7.10;;;4.57;;
44987;SDS011;35735;52.226;21.254;2023-09-08T04:03:31;8.35;;;4.78;;
44987;SDS011;35735;52.226;21.254;2023-09-08T04:08:32;8.40;;;4.53;;
44987;SDS011;35735;52.226;21.254;2023-09-08T04:13:32;14.18;;;5.45;;
44987;SDS011;35735;52.226;21.254;2023-09-08T04:18:33;19.45;;;5.75;;
44987;SDS011;35735;52.226;21.254;2023-09-08T04:23:33;22.90;;;5.68;;
44987;SDS011;35735;52.226;21.254;2023-09-08T04:28:34;15.20;;;5.03;;
44987;SDS011;35735;52.226;21.254;2023-09-08T04:33:35;19.35;;;5.20;;
44987;SDS011;35735;52.226;21.254;2023-09-08T04:38:35;14.30;;;5.20;;
44987;SDS011;35735;52.226;21.254;2023-09-08T04:43:36;22.00;;;5.75;;
44987;SDS011;35735;52.226;21.254;2023-09-08T04:48:36;18.23;;;5.28;;
44987;SDS011;35735;52.226;21.254;2023-09-08T04:53:37;14.52;;;5.45;;
44987;SDS011;35735;52.226;21.254;2023-09-08T04:58:37;15.88;;;5.30;;
44987;SDS011;35735;52.226;21.254;2023-09-08T05:03:38;13.88;;;5.20;;
44987;SDS011;35735;52.226;21.254;2023-09-08T05:08:39;10.90;;;5.37;;
44987;SDS011;35735;52.226;21.254;2023-09-08T05:13:39;11.82;;;5.60;;
44987;SDS011;35735;52.226;21.254;2023-09-08T05:18:40;16.40;;;6.55;;
44987;SDS011;35735;52.226;21.254;2023-09-08T05:23:41;8.20;;;5.50;;
44987;SDS011;35735;52.226;21.254;2023-09-08T05:28:41;7.68;;;5.75;;
44987;SDS011;35735;52.226;21.254;2023-09-08T05:33:42;8.90;;;5.30;;
44987;SDS011;35735;52.226;21.254;2023-09-08T05:38:43;11.60;;;5.80;;
44987;SDS011;35735;52.226;21.254;2023-09-08T05:43:44;8.80;;;5.47;;
44987;SDS011;35735;52.226;21.254;2023-09-08T05:48:44;11.93;;;5.62;;
44987;SDS011;35735;52.226;21.254;2023-09-08T05:53:45;8.02;;;5.65;;
44987;SDS011;35735;52.226;21.254;2023-09-08T05:58:45;10.25;;;5.60;;
44987;SDS011;35735;52.226;21.254;2023-09-08T06:03:46;7.85;;;5.53;;
44987;SDS011;35735;52.226;21.254;2023-09-08T06:08:47;7.10;;;5.68;;
44987;SDS011;35735;52.226;21.254;2023-09-08T06:13:47;8.73;;;5.90;;
44987;SDS011;35735;52.226;21.254;2023-09-08T06:18:48;7.45;;;5.53;;
44987;SDS011;35735;52.226;21.254;2023-09-08T06:23:48;10.35;;;5.43;;
44987;SDS011;35735;52.226;21.254;2023-09-08T06:28:49;7.65;;;5.57;;
44987;SDS011;35735;52.226;21.254;2023-09-08T06:33:49;10.73;;;5.90;;
44987;SDS011;35735;52.226;21.254;2023-09-08T06:38:50;7.20;;;5.37;;
44987;SDS011;35735;52.226;21.254;2023-09-08T06:43:51;8.75;;;5.68;;
44987;SDS011;35735;52.226;21.254;2023-09-08T06:48:51;9.35;;;5.60;;
44987;SDS011;35735;52.226;21.254;2023-09-08T06:53:55;8.23;;;5.50;;
44987;SDS011;35735;52.226;21.254;2023-09-08T06:58:56;9.15;;;5.87;;
44987;SDS011;35735;52.226;21.254;2023-09-08T07:03:57;7.28;;;4.90;;
44987;SDS011;35735;52.226;21.254;2023-09-08T07:08:57;8.52;;;5.10;;
44987;SDS011;35735;52.226;21.254;2023-09-08T07:13:58;10.35;;;5.97;;
44987;SDS011;35735;52.226;21.254;2023-09-08T07:18:58;9.30;;;5.45;;
44987;SDS011;35735;52.226;21.254;2023-09-08T07:23:59;11.00;;;5.28;;
44987;SDS011;35735;52.226;21.254;2023-09-08T07:28:59;7.40;;;5.47;;
44987;SDS011;35735;52.226;21.254;2023-09-08T07:34:00;9.73;;;5.25;;
44987;SDS011;35735;52.226;21.254;2023-09-08T07:39:01;6.80;;;5.40;;
44987;SDS011;35735;52.226;21.254;2023-09-08T07:44:01;7.37;;;5.32;;
44987;SDS011;35735;52.226;21.254;2023-09-08T07:49:02;8.82;;;5.43;;
44987;SDS011;35735;52.226;21.254;2023-09-08T07:54:02;9.10;;;5.30;;
44987;SDS011;35735;52.226;21.254;2023-09-08T07:59:03;13.02;;;5.35;;
44987;SDS011;35735;52.226;21.254;2023-09-08T08:04:04;5.95;;;5.12;;
44987;SDS011;35735;52.226;21.254;2023-09-08T08:09:05;14.65;;;5.62;;
44987;SDS011;35735;52.226;21.254;2023-09-08T08:14:05;10.55;;;5.50;;
44987;SDS011;35735;52.226;21.254;2023-09-08T08:19:06;10.13;;;5.28;;
44987;SDS011;35735;52.226;21.254;2023-09-08T08:24:06;10.77;;;5.72;;
44987;SDS011;35735;52.226;21.254;2023-09-08T08:29:07;13.93;;;5.25;;
44987;SDS011;35735;52.226;21.254;2023-09-08T08:34:07;7.85;;;5.40;;
44987;SDS011;35735;52.226;21.254;2023-09-08T08:39:08;5.60;;;4.90;;
44987;SDS011;35735;52.226;21.254;2023-09-08T08:44:08;7.62;;;5.45;;
44987;SDS011;35735;52.226;21.254;2023-09-08T08:49:09;8.55;;;5.43;;
44987;SDS011;35735;52.226;21.254;2023-09-08T08:54:13;93.97;;;10.13;;
44987;SDS011;35735;52.226;21.254;2023-09-08T08:59:15;20.12;;;6.32;;
44987;SDS011;35735;52.226;21.254;2023-09-08T09:04:16;7.22;;;5.12;;
44987;SDS011;35735;52.226;21.254;2023-09-08T09:09:17;15.90;;;4.97;;
44987;SDS011;35735;52.226;21.254;2023-09-08T09:14:19;6.72;;;5.10;;
44987;SDS011;35735;52.226;21.254;2023-09-08T09:19:20;11.18;;;5.12;;
44987;SDS011;35735;52.226;21.254;2023-09-08T09:24:35;8.90;;;5.43;;
44987;SDS011;35735;52.226;21.254;2023-09-08T09:29:48;8.05;;;5.07;;
44987;SDS011;35735;52.226;21.254;2023-09-08T09:34:53;8.00;;;5.82;;
44987;SDS011;35735;52.226;21.254;2023-09-08T09:39:57;10.18;;;5.37;;
44987;SDS011;35735;52.226;21.254;2023-09-08T09:45:00;10.57;;;5.10;;
44987;SDS011;35735;52.226;21.254;2023-09-08T09:50:01;9.60;;;5.47;;
44987;SDS011;35735;52.226;21.254;2023-09-08T09:55:02;21.87;;;4.82;;
44987;SDS011;35735;52.226;21.254;2023-09-08T10:00:03;8.93;;;4.53;;
44987;SDS011;35735;52.226;21.254;2023-09-08T10:05:10;5.90;;;4.32;;
44987;SDS011;35735;52.226;21.254;2023-09-08T10:10:12;19.12;;;4.95;;
44987;SDS011;35735;52.226;21.254;2023-09-08T10:15:12;6.50;;;4.12;;
44987;SDS011;35735;52.226;21.254;2023-09-08T10:20:16;5.75;;;3.80;;
44987;SDS011;35735;52.226;21.254;2023-09-08T10:25:17;7.25;;;4.32;;
44987;SDS011;35735;52.226;21.254;2023-09-08T10:30:21;6.37;;;3.90;;
44987;SDS011;35735;52.226;21.254;2023-09-08T10:35:22;4.55;;;3.65;;
44987;SDS011;35735;52.226;21.254;2023-09-08T10:40:24;9.98;;;4.25;;
44987;SDS011;35735;52.226;21.254;2023-09-08T10:45:25;7.05;;;3.97;;
44987;SDS011;35735;52.226;21.254;2023-09-08T10:50:30;5.45;;;3.90;;
44987;SDS011;35735;52.226;21.254;2023-09-08T10:55:41;8.48;;;4.20;;
44987;SDS011;35735;52.226;21.254;2023-09-08T11:00:47;10.43;;;4.60;;
44987;SDS011;35735;52.226;21.254;2023-09-08T11:05:52;8.40;;;5.20;;
44987;SDS011;35735;52.226;21.254;2023-09-08T11:10:52;5.43;;;4.18;;
44987;SDS011;35735;52.226;21.254;2023-09-08T11:15:53;6.80;;;4.50;;
44987;SDS011;35735;52.226;21.254;2023-09-08T11:20:55;6.03;;;4.18;;
44987;SDS011;35735;52.226;21.254;2023-09-08T11:25:57;8.88;;;4.85;;
44987;SDS011;35735;52.226;21.254;2023-09-08T11:30:57;10.23;;;4.35;;
44987;SDS011;35735;52.226;21.254;2023-09-08T11:35:58;8.25;;;4.68;;
44987;SDS011;35735;52.226;21.254;2023-09-08T11:40:58;15.10;;;5.22;;
44987;SDS011;35735;52.226;21.254;2023-09-08T11:45:59;6.45;;;4.70;;
44987;SDS011;35735;52.226;21.254;2023-09-08T11:51:00;8.13;;;5.10;;
44987;SDS011;35735;52.226;21.254;2023-09-08T11:56:00;5.65;;;4.80;;
44987;SDS011;35735;52.226;21.254;2023-09-08T12:01:01;5.43;;;4.72;;
44987;SDS011;35735;52.226;21.254;2023-09-08T12:06:03;15.00;;;5.40;;
44987;SDS011;35735;52.226;21.254;2023-09-08T12:11:03;7.97;;;4.68;;
44987;SDS011;35735;52.226;21.254;2023-09-08T12:16:17;6.47;;;5.25;;
44987;SDS011;35735;52.226;21.254;2023-09-08T12:21:19;8.13;;;5.50;;
44987;SDS011;35735;52.226;21.254;2023-09-08T12:26:20;12.52;;;5.30;;
44987;SDS011;35735;52.226;21.254;2023-09-08T12:31:22;10.48;;;5.30;;
44987;SDS011;35735;52.226;21.254;2023-09-08T12:36:23;16.65;;;5.97;;
44987;SDS011;35735;52.226;21.254;2023-09-08T12:41:23;9.50;;;5.45;;
44987;SDS011;35735;52.226;21.254;2023-09-08T12:46:25;5.45;;;4.95;;
44987;SDS011;35735;52.226;21.254;2023-09-08T12:51:25;9.45;;;5.07;;
44987;SDS011;35735;52.226;21.254;2023-09-08T12:56:26;8.90;;;4.87;;
44987;SDS011;35735;52.226;21.254;2023-09-08T13:01:26;7.07;;;5.40;;
44987;SDS011;35735;52.226;21.254;2023-09-08T13:06:28;11.18;;;5.53;;
44987;SDS011;35735;52.226;21.254;2023-09-08T13:11:29;6.93;;;5.60;;
44987;SDS011;35735;52.226;21.254;2023-09-08T13:16:30;8.00;;;5.28;;
44987;SDS011;35735;52.226;21.254;2023-09-08T13:21:31;12.45;;;5.68;;
44987;SDS011;35735;52.226;21.254;2023-09-08T13:26:31;10.77;;;5.20;;
44987;SDS011;35735;52.226;21.254;2023-09-08T13:31:32;15.60;;;5.22;;
44987;SDS011;35735;52.226;21.254;2023-09-08T13:36:32;11.25;;;5.90;;
44987;SDS011;35735;52.226;21.254;2023-09-08T13:41:52;27.25;;;6.53;;
44987;SDS011;35735;52.226;21.254;2023-09-08T13:46:54;20.60;;;6.40;;
44987;SDS011;35735;52.226;21.254;2023-09-08T13:51:55;15.05;;;5.75;;
44987;SDS011;35735;52.226;21.254;2023-09-08T13:56:59;12.48;;;5.30;;
44987;SDS011;35735;52.226;21.254;2023-09-08T14:02:02;11.95;;;6.07;;
44987;SDS011;35735;52.226;21.254;2023-09-08T14:07:03;10.52;;;5.55;;
44987;SDS011;35735;52.226;21.254;2023-09-08T14:12:04;8.15;;;5.20;;
44987;SDS011;35735;52.226;21.254;2023-09-08T14:17:05;11.35;;;5.95;;
44987;SDS011;35735;52.226;21.254;2023-09-08T14:22:05;15.88;;;6.15;;
44987;SDS011;35735;52.226;21.254;2023-09-08T14:27:06;44.28;;;6.93;;
44987;SDS011;35735;52.226;21.254;2023-09-08T14:32:07;11.50;;;5.57;;
44987;SDS011;35735;52.226;21.254;2023-09-08T14:37:07;27.45;;;7.18;;
44987;SDS011;35735;52.226;21.254;2023-09-08T14:42:08;10.13;;;6.25;;
44987;SDS011;35735;52.226;21.254;2023-09-08T14:47:08;9.77;;;6.15;;
44987;SDS011;35735;52.226;21.254;2023-09-08T14:52:09;6.82;;;5.82;;
44987;SDS011;35735;52.226;21.254;2023-09-08T14:57:09;18.85;;;6.30;;
44987;SDS011;35735;52.226;21.254;2023-09-08T15:02:10;21.30;;;6.85;;
44987;SDS011;35735;52.226;21.254;2023-09-08T15:07:11;13.13;;;6.20;;
44987;SDS011;35735;52.226;21.254;2023-09-08T15:12:11;11.98;;;6.30;;
44987;SDS011;35735;52.226;21.254;2023-09-08T15:17:12;15.55;;;5.75;;
44987;SDS011;35735;52.226;21.254;2023-09-08T15:22:12;11.90;;;6.00;;
44987;SDS011;35735;52.226;21.254;2023-09-08T15:27:13;70.35;;;9.40;;
44987;SDS011;35735;52.226;21.254;2023-09-08T15:32:13;36.92;;;7.12;;
44987;SDS011;35735;52.226;21.254;2023-09-08T15:37:14;21.00;;;6.45;;
44987;SDS011;35735;52.226;21.254;2023-09-08T15:42:15;16.67;;;6.35;;
44987;SDS011;35735;52.226;21.254;2023-09-08T15:47:15;14.70;;;6.22;;
44987;SDS011;35735;52.226;21.254;2023-09-08T15:52:16;23.55;;;6.40;;
44987;SDS011;35735;52.226;21.254;2023-09-08T15:57:16;13.05;;;6.10;;
44987;SDS011;35735;52.226;21.254;2023-09-08T16:02:17;11.18;;;6.00;;
44987;SDS011;35735;52.226;21.254;2023-09-08T16:07:17;57.75;;;9.07;;
44987;SDS011;35735;52.226;21.254;2023-09-08T16:12:18;23.02;;;6.62;;
44987;SDS011;35735;52.226;21.254;2023-09-08T16:17:18;21.85;;;6.70;;
44987;SDS011;35735;52.226;21.254;2023-09-08T16:22:19;30.55;;;6.70;;
44987;SDS011;35735;52.226;21.254;2023-09-08T16:27:19;89.03;;;10.50;;
44987;SDS011;35735;52.226;21.254;2023-09-08T16:32:20;30.67;;;7.60;;
44987;SDS011;35735;52.226;21.254;2023-09-08T16:37:21;69.05;;;10.02;;
44987;SDS011;35735;52.226;21.254;2023-09-08T16:42:21;41.45;;;8.27;;
44987;SDS011;35735;52.226;21.254;2023-09-08T16:47:22;39.72;;;7.20;;
44987;SDS011;35735;52.226;21.254;2023-09-08T16:52:22;39.05;;;8.85;;
44987;SDS011;35735;52.226;21.254;2023-09-08T16:57:23;42.15;;;8.45;;
44987;SDS011;35735;52.226;21.254;2023-09-08T17:02:23;41.83;;;8.73;;
44987;SDS011;35735;52.226;21.254;2023-09-08T17:07:24;44.75;;;8.48;;
44987;SDS011;35735;52.226;21.254;2023-09-08T17:12:24;36.25;;;8.25;;
44987;SDS011;35735;52.226;21.254;2023-09-08T17:17:25;45.47;;;9.30;;
44987;SDS011;35735;52.226;21.254;2023-09-08T17:22:25;45.60;;;9.43;;
44987;SDS011;35735;52.226;21.254;2023-09-08T17:27:26;45.55;;;8.85;;
44987;SDS011;35735;52.226;21.254;2023-09-08T17:32:26;44.55;;;9.45;;
44987;SDS011;35735;52.226;21.254;2023-09-08T17:37:27;70.62;;;9.65;;
44987;SDS011;35735;52.226;21.254;2023-09-08T17:42:28;46.92;;;9.60;;
44987;SDS011;35735;52.226;21.254;2023-09-08T17:47:28;58.33;;;10.07;;
44987;SDS011;35735;52.226;21.254;2023-09-08T17:52:29;43.33;;;9.23;;
44987;SDS011;35735;52.226;21.254;2023-09-08T17:57:30;31.25;;;9.93;;
44987;SDS011;35735;52.226;21.254;2023-09-08T18:02:32;36.67;;;9.32;;
44987;SDS011;35735;52.226;21.254;2023-09-08T18:07:32;57.72;;;10.80;;
44987;SDS011;35735;52.226;21.254;2023-09-08T18:12:33;56.88;;;9.88;;
44987;SDS011;35735;52.226;21.254;2023-09-08T18:17:34;46.35;;;9.65;;
44987;SDS011;35735;52.226;21.254;2023-09-08T18:22:34;41.95;;;10.43;;
44987;SDS011;35735;52.226;21.254;2023-09-08T18:27:35;60.30;;;10.82;;
44987;SDS011;35735;52.226;21.254;2023-09-08T18:32:35;37.67;;;9.88;;
44987;SDS011;35735;52.226;21.254;2023-09-08T18:37:36;36.03;;;8.93;;
44987;SDS011;35735;52.226;21.254;2023-09-08T18:42:36;34.25;;;9.40;;
44987;SDS011;35735;52.226;21.254;2023-09-08T18:47:37;30.62;;;9.73;;
44987;SDS011;35735;52.226;21.254;2023-09-08T18:52:37;36.67;;;9.35;;
44987;SDS011;35735;52.226;21.254;2023-09-08T18:57:38;37.53;;;10.02;;
44987;SDS011;35735;52.226;21.254;2023-09-08T19:02:39;40.92;;;10.00;;
44987;SDS011;35735;52.226;21.254;2023-09-08T19:07:39;39.60;;;10.30;;
44987;SDS011;35735;52.226;21.254;2023-09-08T19:12:40;38.50;;;10.43;;
44987;SDS011;35735;52.226;21.254;2023-09-08T19:17:40;41.30;;;10.90;;
44987;SDS011;35735;52.226;21.254;2023-09-08T19:22:41;37.30;;;10.20;;
44987;SDS011;35735;52.226;21.254;2023-09-08T19:27:42;34.58;;;10.32;;
44987;SDS011;35735;52.226;21.254;2023-09-08T19:32:42;39.70;;;10.88;;
44987;SDS011;35735;52.226;21.254;2023-09-08T19:37:44;41.83;;;10.45;;
44987;SDS011;35735;52.226;21.254;2023-09-08T19:42:44;32.63;;;10.13;;
44987;SDS011;35735;52.226;21.254;2023-09-08T19:47:45;31.62;;;10.05;;
44987;SDS011;35735;52.226;21.254;2023-09-08T19:52:45;29.63;;;10.00;;
44987;SDS011;35735;52.226;21.254;2023-09-08T19:57:46;24.60;;;10.25;;
44987;SDS011;35735;52.226;21.254;2023-09-08T20:02:47;30.15;;;10.02;;
44987;SDS011;35735;52.226;21.254;2023-09-08T20:07:47;27.92;;;10.23;;
44987;SDS011;35735;52.226;21.254;2023-09-08T20:12:51;24.40;;;9.73;;
44987;SDS011;35735;52.226;21.254;2023-09-08T20:17:51;17.92;;;9.75;;
44987;SDS011;35735;52.226;21.254;2023-09-08T20:22:52;23.50;;;10.65;;
44987;SDS011;35735;52.226;21.254;2023-09-08T20:27:52;29.80;;;10.38;;
44987;SDS011;35735;52.226;21.254;2023-09-08T20:32:53;29.70;;;10.02;;
44987;SDS011;35735;52.226;21.254;2023-09-08T20:37:53;27.95;;;10.68;;
44987;SDS011;35735;52.226;21.254;2023-09-08T20:42:54;30.23;;;10.30;;
44987;SDS011;35735;52.226;21.254;2023-09-08T20:47:55;23.27;;;10.23;;
44987;SDS011;35735;52.226;21.254;2023-09-08T20:52:55;20.88;;;10.60;;
44987;SDS011;35735;52.226;21.254;2023-09-08T20:57:56;23.55;;;11.48;;
44987;SDS011;35735;52.226;21.254;2023-09-08T21:02:56;21.62;;;10.70;;
44987;SDS011;35735;52.226;21.254;2023-09-08T21:07:57;20.25;;;11.27;;
44987;SDS011;35735;52.226;21.254;2023-09-08T21:12:57;18.12;;;10.55;;
44987;SDS011;35735;52.226;21.254;2023-09-08T21:17:58;17.67;;;10.70;;
44987;SDS011;35735;52.226;21.254;2023-09-08T21:22:58;17.15;;;10.75;;
44987;SDS011;35735;52.226;21.254;2023-09-08T21:27:59;22.35;;;10.52;;
44987;SDS011;35735;52.226;21.254;2023-09-08T21:33:00;19.05;;;10.50;;
44987;SDS011;35735;52.226;21.254;2023-09-08T21:38:01;18.12;;;10.30;;
44987;SDS011;35735;52.226;21.254;2023-09-08T21:43:01;19.92;;;10.48;;
44987;SDS011;35735;52.226;21.254;2023-09-08T21:48:02;19.95;;;10.23;;
44987;SDS011;35735;52.226;21.254;2023-09-08T21:53:03;23.38;;;10.10;;
44987;SDS011;35735;52.226;21.254;2023-09-08T21:58:06;16.15;;;10.30;;
44987;SDS011;35735;52.226;21.254;2023-09-08T22:03:06;18.70;;;10.15;;
44987;SDS011;35735;52.226;21.254;2023-09-08T22:08:07;20.30;;;10.20;;
44987;SDS011;35735;52.226;21.254;2023-09-08T22:13:07;19.75;;;9.80;;
44987;SDS011;35735;52.226;21.254;2023-09-08T22:18:08;15.68;;;9.35;;
44987;SDS011;35735;52.226;21.254;2023-09-08T22:23:09;11.50;;;9.32;;
44987;SDS011;35735;52.226;21.254;2023-09-08T22:28:09;16.58;;;10.27;;
44987;SDS011;35735;52.226;21.254;2023-09-08T22:33:10;18.58;;;9.48;;
44987;SDS011;35735;52.226;21.254;2023-09-08T22:38:10;18.00;;;10.15;;
44987;SDS011;35735;52.226;21.254;2023-09-08T22:43:11;14.95;;;9.18;;
44987;SDS011;35735;52.226;21.254;2023-09-08T22:48:11;13.98;;;9.65;;
44987;SDS011;35735;52.226;21.254;2023-09-08T22:53:12;14.90;;;9.55;;
44987;SDS011;35735;52.226;21.254;2023-09-08T22:58:13;15.07;;;9.52;;
44987;SDS011;35735;52.226;21.254;2023-09-08T23:03:14;15.82;;;10.05;;
44987;SDS011;35735;52.226;21.254;2023-09-08T23:08:14;15.38;;;10.38;;
44987;SDS011;35735;52.226;21.254;2023-09-08T23:13:15;16.40;;;9.95;;
44987;SDS011;35735;52.226;21.254;2023-09-08T23:18:15;19.92;;;10.82;;
44987;SDS011;35735;52.226;21.254;2023-09-08T23:23:16;16.33;;;10.63;;
44987;SDS011;35735;52.226;21.254;2023-09-08T23:28:17;13.32;;;10.25;;
44987;SDS011;35735;52.226;21.254;2023-09-08T23:33:17;14.10;;;9.82;;
44987;SDS011;35735;52.226;21.254;2023-09-08T23:38:18;12.35;;;9.75;;
44987;SDS011;35735;52.226;21.254;2023-09-08T23:43:20;20.12;;;10.10;;
44987;SDS011;35735;52.226;21.254;2023-09-08T23:48:20;17.35;;;10.85;;
44987;SDS011;35735;52.226;21.254;2023-09-08T23:53:21;15.98;;;10.57;;
44987;SDS011;35735;52.226;21.254;2023-09-08T23:58:21;15.05;;;10.40;;
